Terminal Aerodrome Forecast
Issued by NWS

Home | Current Version | Previous Version | Graphics & Text | Print | Product List | Glossary On
Versions: 1 2 3 4 5 6 7 8 9 10 11 12 13 14 15 16 17
000
FTUS43 KFGF 292339
TAFBJI
TAF
KBJI 292339Z 3000/3024 13005KT P6SM BKN035
     FM301000 14004KT P6SM BKN025
     FM301100 13004KT P6SM BKN035
     FM301300 14004KT 2SM BR BKN045
     FM301400 14005KT P6SM BKN050
     FM301500 14005KT P6SM SCT060=

USA.gov is the U.S. government's official web portal to all federal, state and local government web resources and services.